logo tempoitalia

Diretta Meteo Rolla-Vichy Rolla National, Stati Uniti (USA)lunedì 31 agosto ore 00:53

Mappa
Sereno 26 °C Sereno 24 Ore: T.min 21 T.max 34
Ponente Sud Km/h 18.5 Punto di rugiada: 15 °C Umidità: 50% Visibilità: 10 Km
Il sole sorge alle: 06:36 Il sole tramonta alle: 19:38
31 Agosto 2026 00:53 tempo osservato: Sereno Sereno 26 50 1017 vento: Nord S 18.5
30 Agosto 2026 23:53 tempo osservato: Sereno Sereno 26 50 1016 vento: Nord S 16.7
30 Agosto 2026 22:53 tempo osservato: Sereno Sereno 26 54 1016 vento: Nord S/SE 18.5
30 Agosto 2026 21:53 tempo osservato: Sereno Sereno 26 61 1016 vento: Nord SE 18.5
30 Agosto 2026 20:53 tempo osservato: Sereno Sereno 27 61 1015 vento: Nord SE 16.7
30 Agosto 2026 19:53 tempo osservato: Sereno Sereno 27 69 1015 vento: Nord E/SE 14.8
30 Agosto 2026 18:53 tempo osservato: Sereno Sereno 29 58 1015 vento: Nord E/SE 14.8
30 Agosto 2026 17:53 tempo osservato: Sereno Sereno 32 49 1015 vento: Nord E/SE 14.8
30 Agosto 2026 16:53 tempo osservato: Sereno Sereno 34 38 1015 vento: Nord SE 11.1
30 Agosto 2026 15:53 tempo osservato: Sereno Sereno 34 36 1015 vento: Nord S/SE 14.8
30 Agosto 2026 14:53 tempo osservato: Sereno Sereno 34 36 1016 vento: Nord S/SO 13
30 Agosto 2026 13:53 tempo osservato: Sereno Sereno 34 38 1017 vento: Nord S 11.1
30 Agosto 2026 12:53 tempo osservato: Sereno Sereno 32 43 1017 vento: Nord S/SE 16.7
30 Agosto 2026 11:53 tempo osservato: Sereno Sereno 31 43 1018 vento: Nord S/SO 16.7
30 Agosto 2026 10:53 tempo osservato: Sereno Sereno 29 48 1018 vento: Nord S/SO 22.2
30 Agosto 2026 09:53 tempo osservato: Sereno Sereno 27 50 1017 vento: Nord S 24
30 Agosto 2026 08:53 tempo osservato: Sereno Sereno 25 57 1017 vento: Nord S 22.2
30 Agosto 2026 07:53 tempo osservato: Sereno Sereno 22 60 1018 vento: Nord S 22.2
30 Agosto 2026 06:53 tempo osservato: Sereno Sereno 21 64 1018 vento: Nord S 18.5
30 Agosto 2026 05:53 tempo osservato: Sereno Sereno 22 60 1017 vento: Nord S 22.2
30 Agosto 2026 04:53 tempo osservato: Sereno Sereno 22 60 1017 vento: Nord S 18.5
30 Agosto 2026 03:53 tempo osservato: Sereno Sereno 23 56 1017 vento: Nord S 20.3
30 Agosto 2026 02:53 tempo osservato: Sereno Sereno 23 53 1017 vento: Nord S 22.2
30 Agosto 2026 01:53 tempo osservato: Sereno Sereno 23 60 1017 vento: Nord S 20.3